This is the latest recevied weather packets stored in our database for station/object KC9DRE. If no packets are shown the sender has not sent any weather packets the latest 1 day(s).
| Time | Temp. | Humidity | Pressure | Rain* | Wind** | Luminosity | Snow |
|---|---|---|---|---|---|---|---|
| 1778044923 | 10° C | 97% | 1007.9 hPa | 0 mm | 0.89 m/s, 280° | 0 W/m² | - |
| 1778044620 | 10° C | 97% | 1008 hPa | 0 mm | 0.45 m/s, 267° | 0 W/m² | - |
| 1778044316 | 10° C | 97% | 1007.9 hPa | 0 mm | 0 m/s | 0 W/m² | - |
| 1778044015 | 10° C | 97% | 1008 hPa | 0 mm | 0.45 m/s, 248° | 0 W/m² | - |
| 1778043712 | 10° C | 97% | 1008 hPa | 0 mm | 0.45 m/s, 302° | 0 W/m² | - |
| 1778043408 | 10° C | 96% | 1007.9 hPa | 0 mm | 0 m/s | 0 W/m² | - |
| 1778043105 | 10° C | 96% | 1008.2 hPa | 0 mm | 0 m/s | 0 W/m² | - |
| 1778042803 | 10° C | 96% | 1007.8 hPa | 0 mm | 0.45 m/s, 286° | 0 W/m² | - |
| 1778042499 | 10° C | 96% | 1007.8 hPa | 0 mm | 0.45 m/s, 266° | 0 W/m² | - |
| 1778042197 | 10° C | 96% | 1007.5 hPa | 0 mm | 0.45 m/s, 293° | 0 W/m² | - |
| 1778041895 | 10° C | 96% | 1007.6 hPa | 0 mm | 0.45 m/s, 342° | 0 W/m² | - |
| 1778041593 | 10° C | 96% | 1007.9 hPa | 0 mm | 0 m/s | 0 W/m² | - |
| 1778041291 | 10° C | 96% | 1007.9 hPa | 0 mm | 0.45 m/s, 32° | 0 W/m² | - |
| 1778040989 | 10° C | 96% | 1007.7 hPa | 0 mm | 0 m/s | 0 W/m² | - |
| 1778040686 | 10° C | 96% | 1007.8 hPa | 0 mm | 1.34 m/s, 357° | 0 W/m² | - |
| 1778040384 | 10° C | 96% | 1007.6 hPa | 0 mm | 1.34 m/s, 24° | 0 W/m² | - |
| 1778040080 | 10.56° C | 96% | 1007.7 hPa | 0 mm | 0.45 m/s, 269° | 0 W/m² | - |
| 1778039777 | 10.56° C | 96% | 1007.5 hPa | 0 mm | 0.89 m/s, 320° | 0 W/m² | - |
| 1778039474 | 10.56° C | 97% | 1008.1 hPa | 0 mm | 0.45 m/s, 272° | 0 W/m² | - |
| 1778039171 | 10.56° C | 96% | 1008.1 hPa | 0 mm | 0 m/s | 0 W/m² | - |
| 1778038868 | 10.56° C | 96% | 1007.9 hPa | 0 mm | 0 m/s | 0 W/m² | - |
| 1778038565 | 11.11° C | 96% | 1007.4 hPa | 0 mm | 0 m/s | 0 W/m² | - |
| 1778038262 | 11.11° C | 96% | 1007.6 hPa | 0 mm | 0 m/s | 0 W/m² | - |
| 1778037959 | 11.11° C | 96% | 1007.4 hPa | 0 mm | 1.79 m/s, 356° | 0 W/m² | - |
| 1778037656 | 11.11° C | 96% | 1007.5 hPa | 0 mm | 0 m/s | 0 W/m² | - |
* Rain latest hour (hover to see other rain measurements)
** Current wind speed in m/s (hover to see current wind gust speed)